sensor_id;sensor_type;location;lat;lon;timestamp;P1;durP1;ratioP1;P2;durP2;ratioP2
12878;SDS011;20617;49.476;10.986;2023-11-19T00:00:54;4.18;;;3.15;;
12878;SDS011;20617;49.476;10.986;2023-11-19T00:02:59;3.60;;;3.03;;
12878;SDS011;20617;49.476;10.986;2023-11-19T00:05:05;5.03;;;2.63;;
12878;SDS011;20617;49.476;10.986;2023-11-19T00:07:10;3.03;;;2.50;;
12878;SDS011;20617;49.476;10.986;2023-11-19T00:09:17;4.72;;;3.38;;
12878;SDS011;20617;49.476;10.986;2023-11-19T00:11:22;5.40;;;2.90;;
12878;SDS011;20617;49.476;10.986;2023-11-19T00:13:24;4.15;;;3.35;;
12878;SDS011;20617;49.476;10.986;2023-11-19T00:17:37;3.55;;;3.22;;
12878;SDS011;20617;49.476;10.986;2023-11-19T00:19:41;2.95;;;2.65;;
12878;SDS011;20617;49.476;10.986;2023-11-19T00:21:46;5.30;;;3.83;;
12878;SDS011;20617;49.476;10.986;2023-11-19T00:25:56;3.80;;;3.38;;
12878;SDS011;20617;49.476;10.986;2023-11-19T00:28:01;3.78;;;2.78;;
12878;SDS011;20617;49.476;10.986;2023-11-19T00:30:06;3.65;;;3.25;;
12878;SDS011;20617;49.476;10.986;2023-11-19T00:32:12;3.42;;;2.72;;
12878;SDS011;20617;49.476;10.986;2023-11-19T00:34:20;4.40;;;3.42;;
12878;SDS011;20617;49.476;10.986;2023-11-19T00:36:26;4.32;;;3.47;;
12878;SDS011;20617;49.476;10.986;2023-11-19T00:38:31;4.60;;;3.75;;
12878;SDS011;20617;49.476;10.986;2023-11-19T00:40:36;4.93;;;3.58;;
12878;SDS011;20617;49.476;10.986;2023-11-19T00:42:42;3.83;;;3.40;;
12878;SDS011;20617;49.476;10.986;2023-11-19T00:44:45;3.40;;;3.10;;
12878;SDS011;20617;49.476;10.986;2023-11-19T00:46:52;4.22;;;3.20;;
12878;SDS011;20617;49.476;10.986;2023-11-19T00:48:57;3.70;;;3.30;;
12878;SDS011;20617;49.476;10.986;2023-11-19T00:51:06;3.65;;;3.10;;
12878;SDS011;20617;49.476;10.986;2023-11-19T00:53:11;3.83;;;3.28;;
12878;SDS011;20617;49.476;10.986;2023-11-19T00:55:17;4.22;;;3.30;;
12878;SDS011;20617;49.476;10.986;2023-11-19T00:57:22;3.83;;;3.25;;
12878;SDS011;20617;49.476;10.986;2023-11-19T00:59:26;3.75;;;3.33;;
12878;SDS011;20617;49.476;10.986;2023-11-19T01:01:32;4.43;;;3.65;;
12878;SDS011;20617;49.476;10.986;2023-11-19T01:03:34;3.38;;;3.08;;
12878;SDS011;20617;49.476;10.986;2023-11-19T01:05:39;3.38;;;3.08;;
12878;SDS011;20617;49.476;10.986;2023-11-19T01:07:48;3.15;;;2.65;;
12878;SDS011;20617;49.476;10.986;2023-11-19T01:09:56;3.95;;;3.28;;
12878;SDS011;20617;49.476;10.986;2023-11-19T01:12:01;2.67;;;2.47;;
12878;SDS011;20617;49.476;10.986;2023-11-19T01:14:04;5.95;;;3.25;;
12878;SDS011;20617;49.476;10.986;2023-11-19T01:16:10;4.00;;;3.30;;
12878;SDS011;20617;49.476;10.986;2023-11-19T01:18:15;3.72;;;3.30;;
12878;SDS011;20617;49.476;10.986;2023-11-19T01:20:20;3.53;;;3.22;;
12878;SDS011;20617;49.476;10.986;2023-11-19T01:22:25;5.07;;;3.25;;
12878;SDS011;20617;49.476;10.986;2023-11-19T01:24:33;4.28;;;3.63;;
12878;SDS011;20617;49.476;10.986;2023-11-19T01:26:36;3.50;;;3.20;;
12878;SDS011;20617;49.476;10.986;2023-11-19T01:28:47;4.35;;;3.55;;
12878;SDS011;20617;49.476;10.986;2023-11-19T01:30:54;3.03;;;2.70;;
12878;SDS011;20617;49.476;10.986;2023-11-19T01:35:05;3.45;;;3.15;;
12878;SDS011;20617;49.476;10.986;2023-11-19T01:37:09;3.70;;;3.40;;
12878;SDS011;20617;49.476;10.986;2023-11-19T01:39:16;3.58;;;3.28;;
12878;SDS011;20617;49.476;10.986;2023-11-19T01:41:25;4.22;;;3.03;;
12878;SDS011;20617;49.476;10.986;2023-11-19T01:43:34;3.70;;;3.25;;
12878;SDS011;20617;49.476;10.986;2023-11-19T01:45:39;4.65;;;3.97;;
12878;SDS011;20617;49.476;10.986;2023-11-19T01:47:42;5.10;;;3.30;;
12878;SDS011;20617;49.476;10.986;2023-11-19T01:51:52;3.83;;;2.97;;
12878;SDS011;20617;49.476;10.986;2023-11-19T01:53:58;3.25;;;2.95;;
12878;SDS011;20617;49.476;10.986;2023-11-19T01:56:04;5.03;;;3.35;;
12878;SDS011;20617;49.476;10.986;2023-11-19T01:58:13;4.15;;;3.47;;
12878;SDS011;20617;49.476;10.986;2023-11-19T02:00:16;3.53;;;3.15;;
12878;SDS011;20617;49.476;10.986;2023-11-19T02:02:23;3.50;;;3.20;;
12878;SDS011;20617;49.476;10.986;2023-11-19T02:04:28;4.28;;;3.50;;
12878;SDS011;20617;49.476;10.986;2023-11-19T02:06:34;3.30;;;2.97;;
12878;SDS011;20617;49.476;10.986;2023-11-19T02:08:43;3.40;;;3.10;;
12878;SDS011;20617;49.476;10.986;2023-11-19T02:10:48;3.33;;;3.03;;
12878;SDS011;20617;49.476;10.986;2023-11-19T02:12:51;3.55;;;2.97;;
12878;SDS011;20617;49.476;10.986;2023-11-19T02:15:10;3.38;;;3.05;;
12878;SDS011;20617;49.476;10.986;2023-11-19T02:17:25;3.40;;;3.10;;
12878;SDS011;20617;49.476;10.986;2023-11-19T02:19:33;3.45;;;3.15;;
12878;SDS011;20617;49.476;10.986;2023-11-19T02:21:39;3.45;;;3.08;;
12878;SDS011;20617;49.476;10.986;2023-11-19T02:25:54;3.33;;;3.03;;
12878;SDS011;20617;49.476;10.986;2023-11-19T02:28:06;3.58;;;3.28;;
12878;SDS011;20617;49.476;10.986;2023-11-19T02:30:14;3.50;;;3.20;;
12878;SDS011;20617;49.476;10.986;2023-11-19T02:32:19;3.00;;;2.53;;
12878;SDS011;20617;49.476;10.986;2023-11-19T02:34:22;4.38;;;3.30;;
12878;SDS011;20617;49.476;10.986;2023-11-19T02:36:27;4.05;;;3.65;;
12878;SDS011;20617;49.476;10.986;2023-11-19T02:38:33;3.40;;;3.10;;
12878;SDS011;20617;49.476;10.986;2023-11-19T02:40:39;3.08;;;2.78;;
12878;SDS011;20617;49.476;10.986;2023-11-19T02:42:44;2.70;;;2.50;;
12878;SDS011;20617;49.476;10.986;2023-11-19T02:44:53;3.15;;;2.85;;
12878;SDS011;20617;49.476;10.986;2023-11-19T02:46:59;4.47;;;3.22;;
12878;SDS011;20617;49.476;10.986;2023-11-19T02:49:05;3.80;;;3.40;;
12878;SDS011;20617;49.476;10.986;2023-11-19T02:51:12;4.22;;;3.45;;
12878;SDS011;20617;49.476;10.986;2023-11-19T02:55:20;3.25;;;2.83;;
12878;SDS011;20617;49.476;10.986;2023-11-19T02:57:30;3.22;;;2.92;;
12878;SDS011;20617;49.476;10.986;2023-11-19T02:59:40;3.80;;;3.42;;
12878;SDS011;20617;49.476;10.986;2023-11-19T03:01:48;4.53;;;3.75;;
12878;SDS011;20617;49.476;10.986;2023-11-19T03:03:54;4.15;;;3.65;;
12878;SDS011;20617;49.476;10.986;2023-11-19T03:06:00;4.13;;;3.70;;
12878;SDS011;20617;49.476;10.986;2023-11-19T03:08:06;4.20;;;3.67;;
12878;SDS011;20617;49.476;10.986;2023-11-19T03:10:09;3.83;;;3.33;;
12878;SDS011;20617;49.476;10.986;2023-11-19T03:12:15;3.92;;;3.53;;
12878;SDS011;20617;49.476;10.986;2023-11-19T03:14:18;4.25;;;3.53;;
12878;SDS011;20617;49.476;10.986;2023-11-19T03:16:24;4.90;;;3.85;;
12878;SDS011;20617;49.476;10.986;2023-11-19T03:18:30;4.80;;;4.30;;
12878;SDS011;20617;49.476;10.986;2023-11-19T03:20:35;4.32;;;3.88;;
12878;SDS011;20617;49.476;10.986;2023-11-19T03:22:38;4.90;;;4.40;;
12878;SDS011;20617;49.476;10.986;2023-11-19T03:24:44;5.07;;;4.43;;
12878;SDS011;20617;49.476;10.986;2023-11-19T03:26:47;5.13;;;4.00;;
12878;SDS011;20617;49.476;10.986;2023-11-19T03:28:53;4.55;;;4.05;;
12878;SDS011;20617;49.476;10.986;2023-11-19T03:30:56;4.43;;;4.03;;
12878;SDS011;20617;49.476;10.986;2023-11-19T03:33:01;4.40;;;4.00;;
12878;SDS011;20617;49.476;10.986;2023-11-19T03:35:11;4.45;;;4.05;;
12878;SDS011;20617;49.476;10.986;2023-11-19T03:37:16;5.45;;;4.30;;
12878;SDS011;20617;49.476;10.986;2023-11-19T03:39:21;6.45;;;5.60;;
12878;SDS011;20617;49.476;10.986;2023-11-19T03:41:26;6.50;;;5.50;;
12878;SDS011;20617;49.476;10.986;2023-11-19T03:43:42;5.18;;;4.60;;
12878;SDS011;20617;49.476;10.986;2023-11-19T03:47:52;7.43;;;5.90;;
12878;SDS011;20617;49.476;10.986;2023-11-19T03:52:03;6.32;;;5.60;;
12878;SDS011;20617;49.476;10.986;2023-11-19T03:54:20;5.75;;;5.15;;
12878;SDS011;20617;49.476;10.986;2023-11-19T03:56:26;7.32;;;6.00;;
12878;SDS011;20617;49.476;10.986;2023-11-19T03:58:33;8.07;;;5.22;;
12878;SDS011;20617;49.476;10.986;2023-11-19T04:00:38;5.68;;;5.18;;
12878;SDS011;20617;49.476;10.986;2023-11-19T04:02:43;7.05;;;6.35;;
12878;SDS011;20617;49.476;10.986;2023-11-19T04:04:48;6.80;;;5.90;;
12878;SDS011;20617;49.476;10.986;2023-11-19T04:06:51;7.40;;;6.10;;
12878;SDS011;20617;49.476;10.986;2023-11-19T04:11:04;7.88;;;6.20;;
12878;SDS011;20617;49.476;10.986;2023-11-19T04:13:07;7.18;;;5.88;;
12878;SDS011;20617;49.476;10.986;2023-11-19T04:15:14;6.95;;;5.30;;
12878;SDS011;20617;49.476;10.986;2023-11-19T04:17:20;6.22;;;5.63;;
12878;SDS011;20617;49.476;10.986;2023-11-19T04:19:22;7.20;;;5.90;;
12878;SDS011;20617;49.476;10.986;2023-11-19T04:21:28;6.20;;;5.60;;
12878;SDS011;20617;49.476;10.986;2023-11-19T04:23:33;5.63;;;5.03;;
12878;SDS011;20617;49.476;10.986;2023-11-19T04:25:41;6.65;;;5.80;;
12878;SDS011;20617;49.476;10.986;2023-11-19T04:27:46;6.60;;;5.90;;
12878;SDS011;20617;49.476;10.986;2023-11-19T04:29:51;6.40;;;5.57;;
12878;SDS011;20617;49.476;10.986;2023-11-19T04:31:58;6.60;;;5.82;;
12878;SDS011;20617;49.476;10.986;2023-11-19T04:34:02;5.88;;;5.28;;
12878;SDS011;20617;49.476;10.986;2023-11-19T04:36:06;6.53;;;5.82;;
12878;SDS011;20617;49.476;10.986;2023-11-19T04:38:11;6.07;;;5.47;;
12878;SDS011;20617;49.476;10.986;2023-11-19T04:40:16;6.13;;;5.32;;
12878;SDS011;20617;49.476;10.986;2023-11-19T04:42:27;5.68;;;5.18;;
12878;SDS011;20617;49.476;10.986;2023-11-19T04:44:33;6.15;;;5.30;;
12878;SDS011;20617;49.476;10.986;2023-11-19T04:46:38;5.45;;;4.95;;
12878;SDS011;20617;49.476;10.986;2023-11-19T04:48:44;6.70;;;5.97;;
12878;SDS011;20617;49.476;10.986;2023-11-19T04:50:49;6.60;;;5.65;;
12878;SDS011;20617;49.476;10.986;2023-11-19T04:52:56;6.60;;;6.00;;
12878;SDS011;20617;49.476;10.986;2023-11-19T04:55:01;7.30;;;6.57;;
12878;SDS011;20617;49.476;10.986;2023-11-19T04:57:07;6.38;;;5.78;;
12878;SDS011;20617;49.476;10.986;2023-11-19T04:59:14;6.40;;;5.78;;
12878;SDS011;20617;49.476;10.986;2023-11-19T05:01:19;6.32;;;5.63;;
12878;SDS011;20617;49.476;10.986;2023-11-19T05:03:24;6.68;;;5.97;;
12878;SDS011;20617;49.476;10.986;2023-11-19T05:05:29;6.50;;;5.88;;
12878;SDS011;20617;49.476;10.986;2023-11-19T05:09:44;6.30;;;5.68;;
12878;SDS011;20617;49.476;10.986;2023-11-19T05:11:49;6.40;;;5.47;;
12878;SDS011;20617;49.476;10.986;2023-11-19T05:16:01;6.22;;;5.63;;
12878;SDS011;20617;49.476;10.986;2023-11-19T05:18:06;7.35;;;6.25;;
12878;SDS011;20617;49.476;10.986;2023-11-19T05:20:12;8.95;;;6.55;;
12878;SDS011;20617;49.476;10.986;2023-11-19T05:22:18;6.85;;;6.07;;
12878;SDS011;20617;49.476;10.986;2023-11-19T05:24:23;7.03;;;6.32;;
12878;SDS011;20617;49.476;10.986;2023-11-19T05:28:34;7.25;;;6.43;;
12878;SDS011;20617;49.476;10.986;2023-11-19T05:30:39;6.93;;;6.00;;
12878;SDS011;20617;49.476;10.986;2023-11-19T05:32:46;6.40;;;5.75;;
12878;SDS011;20617;49.476;10.986;2023-11-19T05:34:49;6.97;;;6.28;;
12878;SDS011;20617;49.476;10.986;2023-11-19T05:36:54;7.80;;;5.72;;
12878;SDS011;20617;49.476;10.986;2023-11-19T05:38:59;6.43;;;5.82;;
12878;SDS011;20617;49.476;10.986;2023-11-19T05:43:09;5.85;;;5.25;;
12878;SDS011;20617;49.476;10.986;2023-11-19T05:45:16;6.70;;;5.70;;
12878;SDS011;20617;49.476;10.986;2023-11-19T05:47:21;6.80;;;6.10;;
12878;SDS011;20617;49.476;10.986;2023-11-19T05:49:29;5.72;;;5.03;;
12878;SDS011;20617;49.476;10.986;2023-11-19T05:51:36;7.75;;;6.95;;
12878;SDS011;20617;49.476;10.986;2023-11-19T05:53:41;6.35;;;5.68;;
12878;SDS011;20617;49.476;10.986;2023-11-19T05:55:47;6.63;;;5.82;;
12878;SDS011;20617;49.476;10.986;2023-11-19T05:57:57;7.10;;;6.40;;
12878;SDS011;20617;49.476;10.986;2023-11-19T06:00:03;6.00;;;5.38;;
12878;SDS011;20617;49.476;10.986;2023-11-19T06:02:12;6.07;;;5.32;;
12878;SDS011;20617;49.476;10.986;2023-11-19T06:04:17;6.60;;;5.90;;
12878;SDS011;20617;49.476;10.986;2023-11-19T06:06:25;6.10;;;5.47;;
12878;SDS011;20617;49.476;10.986;2023-11-19T06:08:30;5.90;;;5.30;;
12878;SDS011;20617;49.476;10.986;2023-11-19T06:10:33;5.75;;;5.03;;
12878;SDS011;20617;49.476;10.986;2023-11-19T06:12:38;5.75;;;5.15;;
12878;SDS011;20617;49.476;10.986;2023-11-19T06:14:43;5.40;;;4.85;;
12878;SDS011;20617;49.476;10.986;2023-11-19T06:16:46;6.15;;;5.55;;
12878;SDS011;20617;49.476;10.986;2023-11-19T06:20:56;8.77;;;7.47;;
12878;SDS011;20617;49.476;10.986;2023-11-19T06:25:09;8.43;;;7.00;;
12878;SDS011;20617;49.476;10.986;2023-11-19T06:27:13;6.95;;;6.05;;
12878;SDS011;20617;49.476;10.986;2023-11-19T06:29:18;6.63;;;5.93;;
12878;SDS011;20617;49.476;10.986;2023-11-19T06:31:23;7.10;;;5.88;;
12878;SDS011;20617;49.476;10.986;2023-11-19T06:33:28;7.38;;;6.60;;
12878;SDS011;20617;49.476;10.986;2023-11-19T06:35:33;7.13;;;6.13;;
12878;SDS011;20617;49.476;10.986;2023-11-19T06:37:40;6.40;;;5.50;;
12878;SDS011;20617;49.476;10.986;2023-11-19T06:39:46;5.00;;;4.45;;
12878;SDS011;20617;49.476;10.986;2023-11-19T06:41:51;5.30;;;4.78;;
12878;SDS011;20617;49.476;10.986;2023-11-19T06:43:56;6.38;;;5.00;;
12878;SDS011;20617;49.476;10.986;2023-11-19T06:46:04;5.22;;;4.40;;
12878;SDS011;20617;49.476;10.986;2023-11-19T06:48:20;7.15;;;4.95;;
12878;SDS011;20617;49.476;10.986;2023-11-19T06:50:25;5.82;;;4.43;;
12878;SDS011;20617;49.476;10.986;2023-11-19T06:52:30;5.57;;;4.97;;
12878;SDS011;20617;49.476;10.986;2023-11-19T06:54:36;5.35;;;3.83;;
12878;SDS011;20617;49.476;10.986;2023-11-19T06:56:45;3.92;;;3.53;;
12878;SDS011;20617;49.476;10.986;2023-11-19T06:58:50;4.10;;;3.60;;
12878;SDS011;20617;49.476;10.986;2023-11-19T07:00:56;3.10;;;2.80;;
12878;SDS011;20617;49.476;10.986;2023-11-19T07:03:02;2.60;;;2.40;;
12878;SDS011;20617;49.476;10.986;2023-11-19T07:05:10;3.03;;;2.38;;
12878;SDS011;20617;49.476;10.986;2023-11-19T07:07:15;3.10;;;2.55;;
12878;SDS011;20617;49.476;10.986;2023-11-19T07:09:23;2.17;;;1.80;;
12878;SDS011;20617;49.476;10.986;2023-11-19T07:13:34;3.10;;;2.25;;
12878;SDS011;20617;49.476;10.986;2023-11-19T07:15:39;3.65;;;2.40;;
12878;SDS011;20617;49.476;10.986;2023-11-19T07:17:44;2.10;;;1.73;;
12878;SDS011;20617;49.476;10.986;2023-11-19T07:20:03;1.60;;;1.50;;
12878;SDS011;20617;49.476;10.986;2023-11-19T07:22:10;1.70;;;1.20;;
12878;SDS011;20617;49.476;10.986;2023-11-19T07:26:20;1.25;;;0.68;;
12878;SDS011;20617;49.476;10.986;2023-11-19T07:30:33;0.75;;;0.57;;
12878;SDS011;20617;49.476;10.986;2023-11-19T07:32:38;1.02;;;0.80;;
12878;SDS011;20617;49.476;10.986;2023-11-19T07:34:43;0.57;;;0.50;;
12878;SDS011;20617;49.476;10.986;2023-11-19T07:36:51;0.50;;;0.50;;
12878;SDS011;20617;49.476;10.986;2023-11-19T07:38:59;0.57;;;0.57;;
12878;SDS011;20617;49.476;10.986;2023-11-19T07:41:01;1.05;;;0.60;;
12878;SDS011;20617;49.476;10.986;2023-11-19T07:43:07;0.50;;;0.50;;
12878;SDS011;20617;49.476;10.986;2023-11-19T07:45:12;1.13;;;0.70;;
12878;SDS011;20617;49.476;10.986;2023-11-19T07:49:25;2.08;;;1.10;;
12878;SDS011;20617;49.476;10.986;2023-11-19T07:51:30;1.35;;;0.90;;
12878;SDS011;20617;49.476;10.986;2023-11-19T07:55:42;4.32;;;0.82;;
12878;SDS011;20617;49.476;10.986;2023-11-19T07:57:47;0.60;;;0.50;;
12878;SDS011;20617;49.476;10.986;2023-11-19T07:59:53;0.55;;;0.52;;
12878;SDS011;20617;49.476;10.986;2023-11-19T08:01:58;0.50;;;0.47;;
12878;SDS011;20617;49.476;10.986;2023-11-19T08:04:06;0.90;;;0.50;;
12878;SDS011;20617;49.476;10.986;2023-11-19T08:06:12;1.08;;;0.73;;
12878;SDS011;20617;49.476;10.986;2023-11-19T08:08:17;2.65;;;0.80;;
12878;SDS011;20617;49.476;10.986;2023-11-19T08:10:20;1.27;;;0.50;;
12878;SDS011;20617;49.476;10.986;2023-11-19T08:14:30;0.30;;;0.30;;
12878;SDS011;20617;49.476;10.986;2023-11-19T08:16:33;0.50;;;0.50;;
12878;SDS011;20617;49.476;10.986;2023-11-19T08:18:41;1.27;;;0.75;;
12878;SDS011;20617;49.476;10.986;2023-11-19T08:20:49;0.80;;;0.77;;
12878;SDS011;20617;49.476;10.986;2023-11-19T08:22:55;1.70;;;1.00;;
12878;SDS011;20617;49.476;10.986;2023-11-19T08:25:00;1.52;;;0.68;;
12878;SDS011;20617;49.476;10.986;2023-11-19T08:27:06;1.58;;;0.45;;
12878;SDS011;20617;49.476;10.986;2023-11-19T08:29:11;0.80;;;0.80;;
12878;SDS011;20617;49.476;10.986;2023-11-19T08:31:16;0.70;;;0.70;;
12878;SDS011;20617;49.476;10.986;2023-11-19T08:35:26;1.58;;;0.80;;
12878;SDS011;20617;49.476;10.986;2023-11-19T08:37:34;1.25;;;0.70;;
12878;SDS011;20617;49.476;10.986;2023-11-19T08:39:40;1.75;;;0.85;;
12878;SDS011;20617;49.476;10.986;2023-11-19T08:43:50;2.35;;;1.30;;
12878;SDS011;20617;49.476;10.986;2023-11-19T08:45:56;5.93;;;1.75;;
12878;SDS011;20617;49.476;10.986;2023-11-19T08:48:01;1.40;;;1.27;;
12878;SDS011;20617;49.476;10.986;2023-11-19T08:52:13;2.92;;;1.40;;
12878;SDS011;20617;49.476;10.986;2023-11-19T08:54:21;2.95;;;1.60;;
12878;SDS011;20617;49.476;10.986;2023-11-19T08:56:26;2.40;;;1.85;;
12878;SDS011;20617;49.476;10.986;2023-11-19T08:58:34;1.80;;;1.10;;
12878;SDS011;20617;49.476;10.986;2023-11-19T09:00:40;1.95;;;1.20;;
12878;SDS011;20617;49.476;10.986;2023-11-19T09:02:45;2.78;;;1.40;;
12878;SDS011;20617;49.476;10.986;2023-11-19T09:04:50;1.27;;;0.93;;
12878;SDS011;20617;49.476;10.986;2023-11-19T09:06:57;3.17;;;0.90;;
12878;SDS011;20617;49.476;10.986;2023-11-19T09:09:02;3.63;;;0.80;;
12878;SDS011;20617;49.476;10.986;2023-11-19T09:11:10;3.35;;;1.20;;
12878;SDS011;20617;49.476;10.986;2023-11-19T09:13:15;1.98;;;1.60;;
12878;SDS011;20617;49.476;10.986;2023-11-19T09:17:25;2.50;;;1.13;;
12878;SDS011;20617;49.476;10.986;2023-11-19T09:19:32;2.22;;;1.08;;
12878;SDS011;20617;49.476;10.986;2023-11-19T09:21:37;4.10;;;1.30;;
12878;SDS011;20617;49.476;10.986;2023-11-19T09:23:42;1.65;;;1.00;;
12878;SDS011;20617;49.476;10.986;2023-11-19T09:25:49;3.33;;;1.13;;
12878;SDS011;20617;49.476;10.986;2023-11-19T09:27:57;2.33;;;1.23;;
12878;SDS011;20617;49.476;10.986;2023-11-19T09:29:59;2.72;;;1.02;;
12878;SDS011;20617;49.476;10.986;2023-11-19T09:32:06;1.67;;;1.00;;
12878;SDS011;20617;49.476;10.986;2023-11-19T09:34:09;2.10;;;1.33;;
12878;SDS011;20617;49.476;10.986;2023-11-19T09:36:15;4.50;;;1.13;;
12878;SDS011;20617;49.476;10.986;2023-11-19T09:38:21;1.25;;;1.00;;
12878;SDS011;20617;49.476;10.986;2023-11-19T09:42:33;1.35;;;1.00;;
12878;SDS011;20617;49.476;10.986;2023-11-19T09:44:50;2.15;;;0.75;;
12878;SDS011;20617;49.476;10.986;2023-11-19T09:46:56;2.42;;;1.10;;
12878;SDS011;20617;49.476;10.986;2023-11-19T09:49:03;3.85;;;1.00;;
12878;SDS011;20617;49.476;10.986;2023-11-19T09:51:10;7.60;;;1.05;;
12878;SDS011;20617;49.476;10.986;2023-11-19T09:53:16;3.47;;;0.82;;
12878;SDS011;20617;49.476;10.986;2023-11-19T09:55:22;2.40;;;1.10;;
12878;SDS011;20617;49.476;10.986;2023-11-19T09:59:35;2.17;;;1.10;;
12878;SDS011;20617;49.476;10.986;2023-11-19T10:01:44;2.30;;;1.13;;
12878;SDS011;20617;49.476;10.986;2023-11-19T10:03:51;2.35;;;1.20;;
12878;SDS011;20617;49.476;10.986;2023-11-19T10:05:57;2.97;;;1.48;;
12878;SDS011;20617;49.476;10.986;2023-11-19T10:08:03;3.75;;;1.00;;
12878;SDS011;20617;49.476;10.986;2023-11-19T10:10:09;3.42;;;1.55;;
12878;SDS011;20617;49.476;10.986;2023-11-19T10:12:16;5.63;;;1.67;;
12878;SDS011;20617;49.476;10.986;2023-11-19T10:14:22;5.07;;;1.80;;
12878;SDS011;20617;49.476;10.986;2023-11-19T10:16:28;2.63;;;1.25;;
12878;SDS011;20617;49.476;10.986;2023-11-19T10:18:38;2.55;;;1.25;;
12878;SDS011;20617;49.476;10.986;2023-11-19T10:20:49;3.08;;;1.27;;
12878;SDS011;20617;49.476;10.986;2023-11-19T10:22:54;2.28;;;1.08;;
12878;SDS011;20617;49.476;10.986;2023-11-19T10:25:00;3.17;;;1.20;;
12878;SDS011;20617;49.476;10.986;2023-11-19T10:29:12;2.70;;;0.90;;
12878;SDS011;20617;49.476;10.986;2023-11-19T10:31:18;2.17;;;0.85;;
12878;SDS011;20617;49.476;10.986;2023-11-19T10:33:27;3.42;;;1.10;;
12878;SDS011;20617;49.476;10.986;2023-11-19T10:35:35;2.65;;;1.00;;
12878;SDS011;20617;49.476;10.986;2023-11-19T10:37:41;2.15;;;0.95;;
12878;SDS011;20617;49.476;10.986;2023-11-19T10:42:01;3.33;;;1.40;;
12878;SDS011;20617;49.476;10.986;2023-11-19T10:46:45;3.67;;;2.17;;
12878;SDS011;20617;49.476;10.986;2023-11-19T10:48:53;3.03;;;1.40;;
12878;SDS011;20617;49.476;10.986;2023-11-19T10:51:01;1.50;;;0.93;;
12878;SDS011;20617;49.476;10.986;2023-11-19T10:53:10;3.90;;;1.08;;
12878;SDS011;20617;49.476;10.986;2023-11-19T10:55:16;1.55;;;1.00;;
12878;SDS011;20617;49.476;10.986;2023-11-19T10:57:29;1.77;;;0.80;;
12878;SDS011;20617;49.476;10.986;2023-11-19T10:59:37;1.02;;;0.88;;
12878;SDS011;20617;49.476;10.986;2023-11-19T11:01:43;2.58;;;1.30;;
12878;SDS011;20617;49.476;10.986;2023-11-19T11:03:50;1.27;;;1.08;;
12878;SDS011;20617;49.476;10.986;2023-11-19T11:06:01;1.27;;;1.10;;
12878;SDS011;20617;49.476;10.986;2023-11-19T11:08:08;2.45;;;1.00;;
12878;SDS011;20617;49.476;10.986;2023-11-19T11:10:13;3.47;;;1.33;;
12878;SDS011;20617;49.476;10.986;2023-11-19T11:12:24;3.13;;;0.93;;
12878;SDS011;20617;49.476;10.986;2023-11-19T11:14:30;3.50;;;0.88;;
12878;SDS011;20617;49.476;10.986;2023-11-19T11:16:37;2.30;;;0.95;;
12878;SDS011;20617;49.476;10.986;2023-11-19T11:18:45;3.38;;;1.08;;
12878;SDS011;20617;49.476;10.986;2023-11-19T11:20:51;1.85;;;1.23;;
12878;SDS011;20617;49.476;10.986;2023-11-19T11:23:07;1.85;;;0.93;;
12878;SDS011;20617;49.476;10.986;2023-11-19T11:25:38;5.10;;;1.17;;
12878;SDS011;20617;49.476;10.986;2023-11-19T11:27:57;2.10;;;1.10;;
12878;SDS011;20617;49.476;10.986;2023-11-19T11:30:13;3.15;;;1.05;;
12878;SDS011;20617;49.476;10.986;2023-11-19T11:32:33;3.97;;;1.17;;
12878;SDS011;20617;49.476;10.986;2023-11-19T11:34:44;5.35;;;1.15;;
12878;SDS011;20617;49.476;10.986;2023-11-19T11:36:59;2.60;;;0.85;;
12878;SDS011;20617;49.476;10.986;2023-11-19T11:39:18;3.35;;;1.33;;
12878;SDS011;20617;49.476;10.986;2023-11-19T11:41:27;2.70;;;1.20;;
12878;SDS011;20617;49.476;10.986;2023-11-19T11:43:43;5.68;;;0.93;;
12878;SDS011;20617;49.476;10.986;2023-11-19T11:45:49;2.10;;;1.02;;
12878;SDS011;20617;49.476;10.986;2023-11-19T11:50:13;8.65;;;1.15;;
12878;SDS011;20617;49.476;10.986;2023-11-19T11:52:20;2.65;;;1.35;;
12878;SDS011;20617;49.476;10.986;2023-11-19T11:54:28;3.83;;;1.17;;
12878;SDS011;20617;49.476;10.986;2023-11-19T11:56:32;5.85;;;1.35;;
12878;SDS011;20617;49.476;10.986;2023-11-19T11:58:37;4.93;;;1.70;;
12878;SDS011;20617;49.476;10.986;2023-11-19T12:00:47;2.10;;;0.98;;
12878;SDS011;20617;49.476;10.986;2023-11-19T12:02:50;4.75;;;1.20;;
12878;SDS011;20617;49.476;10.986;2023-11-19T12:07:03;3.88;;;1.40;;
12878;SDS011;20617;49.476;10.986;2023-11-19T12:09:06;2.85;;;1.30;;
12878;SDS011;20617;49.476;10.986;2023-11-19T12:11:15;3.78;;;1.60;;
12878;SDS011;20617;49.476;10.986;2023-11-19T12:13:21;3.55;;;1.40;;
12878;SDS011;20617;49.476;10.986;2023-11-19T12:15:23;5.15;;;1.50;;
12878;SDS011;20617;49.476;10.986;2023-11-19T12:19:53;2.83;;;1.58;;
12878;SDS011;20617;49.476;10.986;2023-11-19T12:21:59;4.90;;;2.05;;
12878;SDS011;20617;49.476;10.986;2023-11-19T12:24:05;4.00;;;2.50;;
12878;SDS011;20617;49.476;10.986;2023-11-19T12:26:23;4.13;;;1.98;;
12878;SDS011;20617;49.476;10.986;2023-11-19T12:28:34;4.72;;;2.10;;
12878;SDS011;20617;49.476;10.986;2023-11-19T12:30:39;3.70;;;2.10;;
12878;SDS011;20617;49.476;10.986;2023-11-19T12:32:45;3.83;;;1.80;;
12878;SDS011;20617;49.476;10.986;2023-11-19T12:34:51;5.57;;;2.17;;
12878;SDS011;20617;49.476;10.986;2023-11-19T12:36:57;4.05;;;1.52;;
12878;SDS011;20617;49.476;10.986;2023-11-19T12:39:03;3.58;;;1.40;;
12878;SDS011;20617;49.476;10.986;2023-11-19T12:41:08;3.97;;;1.10;;
12878;SDS011;20617;49.476;10.986;2023-11-19T12:43:23;4.70;;;1.27;;
12878;SDS011;20617;49.476;10.986;2023-11-19T12:45:34;3.42;;;1.80;;
12878;SDS011;20617;49.476;10.986;2023-11-19T12:47:40;4.63;;;1.58;;
12878;SDS011;20617;49.476;10.986;2023-11-19T12:49:54;8.85;;;1.50;;
12878;SDS011;20617;49.476;10.986;2023-11-19T12:52:00;3.60;;;1.67;;
12878;SDS011;20617;49.476;10.986;2023-11-19T12:54:05;4.25;;;1.30;;
12878;SDS011;20617;49.476;10.986;2023-11-19T12:56:08;5.80;;;2.40;;
12878;SDS011;20617;49.476;10.986;2023-11-19T13:00:40;4.65;;;1.88;;
12878;SDS011;20617;49.476;10.986;2023-11-19T13:04:48;2.28;;;1.15;;
12878;SDS011;20617;49.476;10.986;2023-11-19T13:09:01;3.33;;;1.40;;
12878;SDS011;20617;49.476;10.986;2023-11-19T13:13:12;4.20;;;1.90;;
12878;SDS011;20617;49.476;10.986;2023-11-19T13:15:25;4.47;;;1.80;;
12878;SDS011;20617;49.476;10.986;2023-11-19T13:17:30;6.35;;;2.25;;
12878;SDS011;20617;49.476;10.986;2023-11-19T13:19:35;3.63;;;1.20;;
12878;SDS011;20617;49.476;10.986;2023-11-19T13:21:40;4.28;;;1.65;;
12878;SDS011;20617;49.476;10.986;2023-11-19T13:23:48;3.42;;;1.20;;
12878;SDS011;20617;49.476;10.986;2023-11-19T13:25:53;2.10;;;1.00;;
12878;SDS011;20617;49.476;10.986;2023-11-19T13:27:58;8.93;;;4.60;;
12878;SDS011;20617;49.476;10.986;2023-11-19T13:30:04;3.17;;;1.85;;
12878;SDS011;20617;49.476;10.986;2023-11-19T13:32:30;4.03;;;1.52;;
12878;SDS011;20617;49.476;10.986;2023-11-19T13:34:35;3.63;;;1.20;;
12878;SDS011;20617;49.476;10.986;2023-11-19T13:36:41;4.43;;;1.20;;
12878;SDS011;20617;49.476;10.986;2023-11-19T13:38:46;3.55;;;1.27;;
12878;SDS011;20617;49.476;10.986;2023-11-19T13:40:51;5.75;;;1.63;;
12878;SDS011;20617;49.476;10.986;2023-11-19T13:42:56;6.57;;;1.67;;
12878;SDS011;20617;49.476;10.986;2023-11-19T13:45:02;4.40;;;1.70;;
12878;SDS011;20617;49.476;10.986;2023-11-19T13:47:10;4.60;;;2.00;;
12878;SDS011;20617;49.476;10.986;2023-11-19T13:49:18;5.40;;;1.70;;